createdAt,value
2023-04-15T00:00:59.772Z,29.23
2023-04-15T00:03:27.346Z,30.87
2023-04-15T00:05:54.396Z,30.63
2023-04-15T00:08:21.182Z,28.57
2023-04-15T00:10:48.188Z,29.17
2023-04-15T00:13:15.414Z,26.33
2023-04-15T00:15:43.167Z,27.40
2023-04-15T00:18:10.292Z,25.07
2023-04-15T00:20:37.588Z,25.50
2023-04-15T00:23:05.599Z,26.67
2023-04-15T00:25:33.003Z,27.73
2023-04-15T00:28:00.141Z,29.10
2023-04-15T00:30:26.999Z,29.40
2023-04-15T00:32:53.918Z,26.20
2023-04-15T00:35:23.955Z,26.70
2023-04-15T00:37:51.480Z,27.17
2023-04-15T00:40:20.941Z,25.40
2023-04-15T00:42:48.048Z,25.37
2023-04-15T00:45:15.618Z,28.63
2023-04-15T00:47:44.079Z,26.90
2023-04-15T00:50:12.627Z,27.80
2023-04-15T00:52:40.771Z,28.07
2023-04-15T00:55:08.751Z,26.70
2023-04-15T00:57:36.276Z,30.03
2023-04-15T01:00:04.753Z,29.13
2023-04-15T01:02:32.894Z,30.53
2023-04-15T01:05:02.668Z,27.00
2023-04-15T01:07:29.570Z,26.80
2023-04-15T01:09:56.873Z,26.33
2023-04-15T01:12:26.248Z,26.80
2023-04-15T01:14:55.230Z,26.43
2023-04-15T01:17:22.118Z,27.57
2023-04-15T01:19:49.047Z,26.53
2023-04-15T01:22:16.198Z,26.43
2023-04-15T01:24:52.181Z,27.83
2023-04-15T01:27:20.674Z,27.83
2023-04-15T01:29:48.203Z,28.03
2023-04-15T01:32:15.611Z,28.60
2023-04-15T01:34:42.413Z,29.50
2023-04-15T01:37:09.235Z,29.20
2023-04-15T01:39:36.080Z,28.80
2023-04-15T01:42:03.398Z,28.23
2023-04-15T01:44:30.153Z,28.23
2023-04-15T01:46:57.096Z,27.40
2023-04-15T01:49:24.154Z,27.27
2023-04-15T01:51:50.958Z,27.73
2023-04-15T01:54:17.903Z,27.37
2023-04-15T01:56:44.859Z,25.70
2023-04-15T01:59:11.715Z,27.50
2023-04-15T02:01:38.852Z,27.67
2023-04-15T02:04:05.865Z,29.13
2023-04-15T02:06:33.305Z,30.60
2023-04-15T02:09:00.300Z,29.10
2023-04-15T02:11:27.286Z,31.10
2023-04-15T02:13:54.091Z,30.53
2023-04-15T02:16:21.372Z,28.97
2023-04-15T02:18:48.262Z,28.10
2023-04-15T02:21:15.095Z,27.63
2023-04-15T02:23:41.967Z,28.37
2023-04-15T02:26:08.737Z,28.50
2023-04-15T02:28:35.882Z,25.93
2023-04-15T02:31:06.629Z,28.13
2023-04-15T02:33:33.671Z,29.40
2023-04-15T02:36:01.081Z,28.50
2023-04-15T02:38:28.681Z,28.00
2023-04-15T02:40:55.767Z,29.20
2023-04-15T02:43:23.070Z,27.30
2023-04-15T02:45:52.313Z,29.80
2023-04-15T02:48:20.693Z,29.13
2023-04-15T02:50:48.181Z,28.20
2023-04-15T02:53:17.419Z,27.40
2023-04-15T02:55:44.361Z,28.90
2023-04-15T02:58:11.113Z,28.63
2023-04-15T03:00:37.960Z,28.87
2023-04-15T03:03:06.596Z,28.17
2023-04-15T03:05:33.818Z,29.37
2023-04-15T03:08:03.510Z,29.73
2023-04-15T03:10:30.330Z,27.73
2023-04-15T03:12:57.256Z,31.20
2023-04-15T03:15:24.559Z,29.60
2023-04-15T03:17:53.296Z,31.07
2023-04-15T03:20:20.427Z,32.10
2023-04-15T03:22:48.513Z,27.77
2023-04-15T03:25:15.702Z,29.43
2023-04-15T03:27:43.293Z,29.93
2023-04-15T03:30:12.310Z,31.07
2023-04-15T03:32:40.408Z,27.67
2023-04-15T03:35:09.676Z,29.23
2023-04-15T03:37:36.860Z,30.60
2023-04-15T03:40:03.737Z,31.80
2023-04-15T03:42:30.580Z,31.17
2023-04-15T03:44:57.376Z,28.10
2023-04-15T03:47:24.191Z,28.53
2023-04-15T03:49:51.035Z,28.33
2023-04-15T03:52:17.820Z,27.10
2023-04-15T03:54:44.551Z,24.90
2023-04-15T03:57:11.548Z,24.93
2023-04-15T03:59:38.312Z,24.83
2023-04-15T04:02:05.123Z,25.93
2023-04-15T04:04:32.054Z,27.10
2023-04-15T04:06:58.855Z,26.20
2023-04-15T04:09:25.898Z,26.97
2023-04-15T04:11:52.660Z,29.33
2023-04-15T04:14:19.504Z,27.03
2023-04-15T04:16:46.528Z,28.57
2023-04-15T04:19:14.771Z,27.60
2023-04-15T04:21:41.570Z,26.40
2023-04-15T04:24:08.362Z,26.73
2023-04-15T04:26:35.137Z,28.03
2023-04-15T04:29:02.140Z,29.77
2023-04-15T04:31:29.198Z,29.07
2023-04-15T04:33:56.047Z,29.77
2023-04-15T04:36:22.923Z,29.17
2023-04-15T04:38:49.653Z,27.10
2023-04-15T04:41:16.387Z,28.40
2023-04-15T04:43:43.199Z,28.17
2023-04-15T04:46:10.475Z,29.60
2023-04-15T04:48:37.364Z,31.13
2023-04-15T04:51:04.560Z,28.33
2023-04-15T04:53:31.676Z,26.23
2023-04-15T04:55:58.538Z,26.80
2023-04-15T04:58:25.810Z,25.97
2023-04-15T05:00:52.982Z,27.43
2023-04-15T05:03:19.961Z,27.17
2023-04-15T05:05:46.905Z,28.37
2023-04-15T05:08:13.784Z,27.33
2023-04-15T05:10:40.589Z,27.43
2023-04-15T05:13:07.420Z,29.20
2023-04-15T05:15:36.821Z,29.73
2023-04-15T05:18:03.718Z,30.93
2023-04-15T05:20:30.627Z,29.10
2023-04-15T05:22:57.393Z,29.87
2023-04-15T05:25:24.192Z,32.57
2023-04-15T05:27:51.561Z,32.53
2023-04-15T05:30:18.464Z,33.23
2023-04-15T05:32:45.807Z,33.60
2023-04-15T05:35:15.185Z,35.43
2023-04-15T05:37:42.033Z,34.60
2023-04-15T05:40:10.611Z,35.83
2023-04-15T05:42:37.587Z,35.53
2023-04-15T05:45:09.031Z,35.80
2023-04-15T05:47:37.596Z,33.60
2023-04-15T05:50:05.183Z,36.33
2023-04-15T05:52:32.314Z,35.00
2023-04-15T05:54:59.139Z,35.57
2023-04-15T05:57:25.933Z,36.40
2023-04-15T05:59:52.900Z,34.97
2023-04-15T06:02:19.943Z,33.77
2023-04-15T06:04:47.399Z,32.93
2023-04-15T06:07:14.481Z,33.73
2023-04-15T06:09:41.446Z,34.60
2023-04-15T06:12:12.302Z,35.40
2023-04-15T06:14:40.609Z,36.00
2023-04-15T06:17:07.860Z,37.67
2023-04-15T06:19:35.052Z,38.53
2023-04-15T06:22:02.057Z,34.60
2023-04-15T06:24:29.327Z,34.37
2023-04-15T06:26:56.198Z,34.33
2023-04-15T06:29:23.009Z,34.73
2023-04-15T06:31:50.022Z,34.40
2023-04-15T06:34:17.061Z,37.20
2023-04-15T06:36:43.918Z,36.33
2023-04-15T06:39:10.928Z,34.97
2023-04-15T06:41:37.790Z,34.60
2023-04-15T06:44:04.807Z,32.83
2023-04-15T06:46:31.754Z,31.37
2023-04-15T06:48:58.653Z,30.70
2023-04-15T06:51:26.738Z,32.93
2023-04-15T06:53:54.064Z,32.30
2023-04-15T06:56:20.859Z,32.77
2023-04-15T06:58:47.935Z,34.70
2023-04-15T07:01:14.734Z,35.33
2023-04-15T07:03:42.029Z,32.73
2023-04-15T07:06:09.426Z,35.47
2023-04-15T07:08:36.766Z,30.83
2023-04-15T07:11:03.775Z,33.23
2023-04-15T07:13:32.368Z,30.63
2023-04-15T07:15:59.310Z,29.23
2023-04-15T07:18:26.124Z,33.07
2023-04-15T07:20:52.964Z,30.70
2023-04-15T07:23:19.753Z,33.13
2023-04-15T07:25:47.336Z,33.30
2023-04-15T07:28:14.218Z,29.40
2023-04-15T07:30:41.577Z,27.00
2023-04-15T07:33:08.451Z,28.60
2023-04-15T07:35:35.289Z,29.20
2023-04-15T07:38:02.403Z,28.97
2023-04-15T07:40:29.289Z,27.47
2023-04-15T07:42:59.211Z,28.20
2023-04-15T07:45:26.111Z,27.07
2023-04-15T07:47:52.909Z,28.43
2023-04-15T07:50:19.797Z,24.33
2023-04-15T07:52:47.003Z,23.67
2023-04-15T07:55:13.858Z,25.27
2023-04-15T07:57:40.763Z,26.43
2023-04-15T08:00:08.307Z,23.27
2023-04-15T08:02:41.653Z,21.63
2023-04-15T08:05:09.621Z,21.10
2023-04-15T08:07:38.310Z,22.67
2023-04-15T08:10:05.794Z,20.00
2023-04-15T08:12:32.907Z,21.20
2023-04-15T08:14:59.976Z,21.63
2023-04-15T08:17:26.997Z,22.60
2023-04-15T08:19:54.130Z,21.70
2023-04-15T08:22:21.969Z,21.43
2023-04-15T08:24:49.237Z,21.50
2023-04-15T08:27:15.980Z,20.30
2023-04-15T08:29:42.779Z,20.10
2023-04-15T08:32:09.642Z,19.27
2023-04-15T08:34:36.774Z,19.20
2023-04-15T08:37:03.557Z,19.97
2023-04-15T08:39:30.334Z,18.83
2023-04-15T08:42:02.571Z,19.47
2023-04-15T08:44:36.839Z,19.63
2023-04-15T08:47:07.786Z,18.30
2023-04-15T08:49:39.746Z,18.80
2023-04-15T08:52:07.413Z,18.60
2023-04-15T08:54:35.286Z,18.97
2023-04-15T08:57:02.577Z,19.10
2023-04-15T08:59:31.074Z,18.87
2023-04-15T09:01:58.765Z,19.20
2023-04-15T09:04:25.902Z,18.73
2023-04-15T09:06:52.732Z,19.27
2023-04-15T09:09:19.693Z,18.77
2023-04-15T09:11:46.564Z,19.23
2023-04-15T09:14:13.547Z,19.07
2023-04-15T09:17:01.869Z,20.00
2023-04-15T09:19:29.752Z,20.27
2023-04-15T09:21:59.282Z,20.30
2023-04-15T09:24:34.312Z,20.03
2023-04-15T09:27:01.110Z,20.67
2023-04-15T09:29:28.132Z,19.30
2023-04-15T09:31:54.953Z,19.90
2023-04-15T09:34:22.523Z,20.27
2023-04-15T09:36:56.995Z,20.10
2023-04-15T09:39:23.912Z,18.83
2023-04-15T09:42:09.743Z,18.77
2023-04-15T09:44:37.470Z,18.20
2023-04-15T09:47:04.361Z,18.90
2023-04-15T09:49:31.229Z,18.27
2023-04-15T09:52:05.667Z,18.40
2023-04-15T09:54:35.463Z,18.17
2023-04-15T09:57:13.205Z,17.93
2023-04-15T09:59:40.085Z,18.37
2023-04-15T10:02:10.049Z,18.80
2023-04-15T10:04:40.745Z,19.93
2023-04-15T10:07:09.613Z,18.03
2023-04-15T10:09:37.248Z,18.13
2023-04-15T10:12:05.425Z,18.57
2023-04-15T10:14:34.787Z,18.93
2023-04-15T10:17:04.156Z,19.07
2023-04-15T10:19:33.182Z,18.17
2023-04-15T10:22:00.582Z,18.73
2023-04-15T10:24:27.878Z,18.77
2023-04-15T10:26:55.404Z,17.27
2023-04-15T10:29:23.629Z,16.67
2023-04-15T10:31:51.040Z,17.53
2023-04-15T10:34:19.226Z,17.67
2023-04-15T10:36:47.285Z,17.60
2023-04-15T10:39:33.207Z,19.00
2023-04-15T10:42:17.788Z,17.47
2023-04-15T10:44:52.286Z,18.50
2023-04-15T10:47:21.309Z,18.20
2023-04-15T10:49:49.974Z,17.90
2023-04-15T10:52:18.876Z,17.23
2023-04-15T10:54:45.884Z,18.10
2023-04-15T10:57:22.227Z,18.33
2023-04-15T11:00:12.093Z,17.50
2023-04-15T11:02:40.548Z,17.53
2023-04-15T11:05:08.192Z,18.07
2023-04-15T11:07:47.177Z,18.00
2023-04-15T11:10:13.951Z,18.30
2023-04-15T11:12:42.137Z,17.77
2023-04-15T11:15:32.813Z,18.27
2023-04-15T11:18:09.449Z,18.07
2023-04-15T11:20:37.331Z,17.80
2023-04-15T11:23:14.572Z,17.30
2023-04-15T11:25:43.550Z,17.23
2023-04-15T11:28:11.965Z,17.33
2023-04-15T11:30:40.064Z,16.77
2023-04-15T11:33:09.286Z,17.47
2023-04-15T11:35:36.680Z,17.43
2023-04-15T11:38:14.335Z,18.13
2023-04-15T11:40:45.340Z,17.40
2023-04-15T11:43:22.052Z,17.20
2023-04-15T11:45:59.959Z,17.13
2023-04-15T11:48:32.275Z,17.50
2023-04-15T11:51:01.435Z,16.47
2023-04-15T11:53:43.414Z,16.23
2023-04-15T11:56:16.793Z,16.27
2023-04-15T11:58:44.726Z,15.97
2023-04-15T12:01:11.921Z,16.37
2023-04-15T12:03:43.933Z,17.10
2023-04-15T12:06:21.220Z,17.60
2023-04-15T12:08:55.193Z,16.40
2023-04-15T12:11:31.223Z,17.70
2023-04-15T12:14:10.739Z,16.80
2023-04-15T12:16:48.669Z,17.00
2023-04-15T12:19:22.671Z,17.53
2023-04-15T12:21:50.128Z,16.50
2023-04-15T12:24:21.711Z,17.10
2023-04-15T12:26:57.723Z,16.80
2023-04-15T12:29:29.311Z,17.30
2023-04-15T12:32:06.389Z,15.70
2023-04-15T12:34:35.756Z,17.30
2023-04-15T12:37:04.360Z,17.37
2023-04-15T12:39:42.857Z,16.20
2023-04-15T12:42:10.797Z,17.67
2023-04-15T12:44:38.929Z,16.37
2023-04-15T12:47:06.854Z,16.83
2023-04-15T12:49:33.902Z,17.07
2023-04-15T12:52:02.101Z,16.23
2023-04-15T12:54:30.800Z,16.83
2023-04-15T12:56:58.595Z,16.60
2023-04-15T12:59:25.657Z,16.07
2023-04-15T13:01:53.560Z,16.17
2023-04-15T13:04:21.390Z,16.07
2023-04-15T13:06:48.500Z,16.63
2023-04-15T13:09:15.786Z,16.03
2023-04-15T13:11:43.208Z,16.43
2023-04-15T13:14:13.666Z,15.53
2023-04-15T13:16:41.047Z,15.70
2023-04-15T13:19:07.986Z,15.67
2023-04-15T13:21:36.226Z,15.60
2023-04-15T13:24:04.915Z,15.97
2023-04-15T13:26:32.900Z,15.80
2023-04-15T13:29:01.951Z,16.13
2023-04-15T13:31:28.937Z,16.53
2023-04-15T13:33:57.550Z,17.13
2023-04-15T13:36:24.632Z,17.63
2023-04-15T13:38:51.918Z,16.67
2023-04-15T13:41:20.012Z,17.00
2023-04-15T13:43:47.299Z,18.47
2023-04-15T13:46:14.678Z,17.23
2023-04-15T13:48:41.835Z,17.70
2023-04-15T13:51:08.799Z,17.90
2023-04-15T13:53:38.398Z,17.80
2023-04-15T13:56:09.374Z,16.57
2023-04-15T13:58:37.582Z,16.77
2023-04-15T14:01:06.293Z,17.77
2023-04-15T14:03:36.077Z,17.60
2023-04-15T14:06:03.515Z,18.90
2023-04-15T14:08:31.027Z,17.87
2023-04-15T14:10:57.929Z,17.10
2023-04-15T14:13:25.009Z,16.40
2023-04-15T14:15:51.960Z,16.50
2023-04-15T14:18:18.787Z,17.10
2023-04-15T14:20:45.636Z,17.00
2023-04-15T14:23:12.481Z,17.33
2023-04-15T14:25:39.415Z,17.37
2023-04-15T14:28:06.273Z,17.47
2023-04-15T14:30:33.325Z,18.57
2023-04-15T14:33:00.449Z,17.83
2023-04-15T14:35:28.035Z,18.77
2023-04-15T14:37:55.647Z,18.93
2023-04-15T14:40:22.672Z,18.53
2023-04-15T14:42:49.610Z,20.17
2023-04-15T14:45:17.586Z,19.77
2023-04-15T14:47:44.600Z,19.07
2023-04-15T14:50:11.484Z,20.07
2023-04-15T14:52:41.220Z,19.47
2023-04-15T14:55:12.538Z,18.43
2023-04-15T14:57:40.971Z,17.77
2023-04-15T15:00:09.969Z,17.90
2023-04-15T15:02:40.349Z,18.20
2023-04-15T15:05:08.433Z,17.97
2023-04-15T15:07:37.109Z,18.10
2023-04-15T15:10:04.728Z,19.23
2023-04-15T15:12:32.188Z,19.57
2023-04-15T15:14:59.219Z,18.10
2023-04-15T15:17:26.255Z,18.87
2023-04-15T15:19:53.090Z,18.50
2023-04-15T15:22:21.465Z,18.73
2023-04-15T15:24:48.428Z,19.70
2023-04-15T15:27:15.289Z,18.87
2023-04-15T15:29:42.134Z,18.70
2023-04-15T15:32:08.944Z,18.60
2023-04-15T15:34:36.000Z,18.73
2023-04-15T15:37:03.017Z,19.50
2023-04-15T15:39:29.808Z,19.93
2023-04-15T15:41:56.620Z,19.53
2023-04-15T15:44:23.535Z,22.10
2023-04-15T15:46:51.161Z,23.23
2023-04-15T15:49:18.256Z,24.27
2023-04-15T15:51:45.871Z,22.60
2023-04-15T15:54:13.036Z,23.50
2023-04-15T15:56:39.865Z,22.20
2023-04-15T15:59:06.973Z,22.47
2023-04-15T16:01:34.031Z,22.57
2023-04-15T16:04:01.267Z,22.50
2023-04-15T16:06:28.726Z,21.23
2023-04-15T16:08:55.598Z,21.40
2023-04-15T16:11:23.011Z,22.43
2023-04-15T16:13:49.872Z,23.90
2023-04-15T16:16:16.680Z,23.23
2023-04-15T16:18:43.584Z,23.33
2023-04-15T16:21:10.496Z,23.43
2023-04-15T16:23:38.229Z,23.43
2023-04-15T16:26:05.211Z,24.80
2023-04-15T16:28:32.162Z,23.47
2023-04-15T16:30:59.407Z,24.27
2023-04-15T16:33:27.012Z,23.87
2023-04-15T16:35:53.956Z,22.17
2023-04-15T16:38:21.093Z,21.80
2023-04-15T16:40:47.910Z,22.53
2023-04-15T16:43:14.719Z,21.73
2023-04-15T16:45:41.637Z,21.67
2023-04-15T16:48:08.558Z,21.90
2023-04-15T16:50:36.660Z,23.50
2023-04-15T16:53:03.533Z,21.73
2023-04-15T16:55:30.376Z,22.07
2023-04-15T16:58:02.246Z,21.47
2023-04-15T17:00:36.587Z,22.70
2023-04-15T17:03:05.932Z,22.87
2023-04-15T17:05:33.309Z,23.20
2023-04-15T17:08:00.384Z,23.03
2023-04-15T17:10:27.876Z,21.53
2023-04-15T17:12:56.931Z,22.00
2023-04-15T17:15:23.938Z,23.30
2023-04-15T17:17:51.032Z,22.97
2023-04-15T17:20:18.051Z,22.10
2023-04-15T17:22:45.907Z,22.50
2023-04-15T17:25:14.075Z,22.97
2023-04-15T17:27:41.505Z,22.57
2023-04-15T17:30:08.882Z,23.07
2023-04-15T17:32:36.031Z,22.07
2023-04-15T17:35:05.939Z,23.57
2023-04-15T17:37:34.058Z,23.70
2023-04-15T17:40:00.904Z,23.20
2023-04-15T17:42:28.209Z,22.43
2023-04-15T17:44:54.966Z,26.63
2023-04-15T17:47:21.750Z,25.40
2023-04-15T17:49:48.555Z,24.53
2023-04-15T17:52:15.354Z,26.27
2023-04-15T17:54:42.185Z,24.80
2023-04-15T17:57:09.687Z,23.67
2023-04-15T17:59:36.744Z,24.77
2023-04-15T18:02:03.784Z,24.80
2023-04-15T18:04:30.741Z,24.57
2023-04-15T18:06:57.826Z,24.33
2023-04-15T18:09:24.636Z,24.10
2023-04-15T18:11:51.427Z,24.23
2023-04-15T18:14:33.037Z,25.80
2023-04-15T18:17:02.365Z,23.20
2023-04-15T18:19:30.609Z,23.03
2023-04-15T18:21:59.879Z,24.10
2023-04-15T18:24:26.788Z,22.50
2023-04-15T18:26:54.001Z,23.47
2023-04-15T18:29:20.866Z,23.07
2023-04-15T18:31:47.803Z,21.83
2023-04-15T18:34:14.698Z,22.43
2023-04-15T18:36:41.651Z,22.13
2023-04-15T18:39:08.711Z,21.73
2023-04-15T18:41:35.552Z,23.50
2023-04-15T18:44:02.409Z,22.00
2023-04-15T18:46:29.493Z,24.03
2023-04-15T18:48:56.369Z,23.17
2023-04-15T18:51:23.381Z,22.63
2023-04-15T18:53:50.480Z,23.40
2023-04-15T18:56:17.424Z,23.57
2023-04-15T18:59:08.813Z,24.17
2023-04-15T19:01:32.059Z,23.50
2023-04-15T19:03:59.653Z,25.33
2023-04-15T19:06:28.594Z,26.20
2023-04-15T19:08:57.849Z,25.37
2023-04-15T19:11:25.333Z,25.60
2023-04-15T19:13:53.221Z,26.00
2023-04-15T19:16:20.532Z,27.03
2023-04-15T19:18:47.356Z,27.10
2023-04-15T19:21:14.736Z,25.87
2023-04-15T19:23:42.982Z,28.10
2023-04-15T19:26:10.348Z,27.70
2023-04-15T19:28:37.168Z,29.30
2023-04-15T19:31:04.109Z,27.73
2023-04-15T19:33:31.611Z,27.70
2023-04-15T19:36:04.215Z,28.60
2023-04-15T19:38:31.553Z,27.17
2023-04-15T19:40:59.210Z,27.87
2023-04-15T19:43:26.351Z,27.63
2023-04-15T19:45:54.757Z,28.63
2023-04-15T19:48:24.358Z,27.10
2023-04-15T19:50:51.639Z,28.83
2023-04-15T19:53:18.585Z,30.90
2023-04-15T19:55:45.769Z,30.17
2023-04-15T19:58:12.745Z,30.70
2023-04-15T20:00:39.646Z,28.70
2023-04-15T20:03:06.596Z,29.77
2023-04-15T20:05:33.712Z,30.13
2023-04-15T20:08:01.408Z,29.40
2023-04-15T20:10:28.353Z,31.60
2023-04-15T20:12:55.361Z,29.57
2023-04-15T20:15:23.721Z,28.10
2023-04-15T20:17:50.928Z,29.90
2023-04-15T20:20:17.827Z,29.77
2023-04-15T20:22:44.981Z,29.73
2023-04-15T20:25:11.814Z,27.67
2023-04-15T20:27:38.711Z,28.97
2023-04-15T20:30:06.532Z,29.63
2023-04-15T20:32:35.888Z,28.53
2023-04-15T20:35:04.892Z,30.40
2023-04-15T20:37:33.658Z,29.73
2023-04-15T20:40:01.668Z,29.73
2023-04-15T20:42:34.031Z,28.40
2023-04-15T20:45:01.241Z,28.80
2023-04-15T20:47:28.277Z,30.67
2023-04-15T20:49:55.421Z,31.23
2023-04-15T20:52:22.296Z,30.50
2023-04-15T20:54:49.155Z,30.80
2023-04-15T20:57:16.794Z,30.50
2023-04-15T20:59:43.846Z,31.20
2023-04-15T21:02:11.706Z,30.20
2023-04-15T21:04:38.817Z,31.40
2023-04-15T21:07:05.724Z,31.33
2023-04-15T21:09:32.510Z,31.50
2023-04-15T21:12:01.746Z,30.63
2023-04-15T21:14:29.183Z,30.90
2023-04-15T21:16:58.211Z,30.53
2023-04-15T21:19:25.027Z,31.03
2023-04-15T21:21:52.577Z,30.03
2023-04-15T21:24:19.353Z,30.13
2023-04-15T21:26:46.153Z,30.87
2023-04-15T21:29:13.329Z,30.60
2023-04-15T21:31:40.717Z,29.87
2023-04-15T21:34:08.219Z,30.10
2023-04-15T21:36:35.356Z,30.60
2023-04-15T21:39:02.324Z,29.77
2023-04-15T21:41:29.497Z,32.10
2023-04-15T21:43:56.287Z,30.33
2023-04-15T21:46:25.621Z,30.23
2023-04-15T21:48:59.505Z,30.60
2023-04-15T21:51:26.700Z,30.07
2023-04-15T21:53:53.478Z,29.60
2023-04-15T21:56:22.626Z,30.57
2023-04-15T21:58:49.500Z,31.73
2023-04-15T22:01:16.924Z,31.97
2023-04-15T22:03:43.953Z,29.93
2023-04-15T22:06:11.204Z,30.63
2023-04-15T22:08:44.860Z,31.93
2023-04-15T22:11:26.349Z,30.83
2023-04-15T22:13:57.441Z,30.33
2023-04-15T22:16:27.707Z,31.60
2023-04-15T22:18:56.208Z,32.83
2023-04-15T22:21:23.639Z,31.50
2023-04-15T22:23:51.342Z,31.57
2023-04-15T22:26:18.175Z,31.27
2023-04-15T22:28:45.386Z,31.63
2023-04-15T22:31:12.509Z,34.23
2023-04-15T22:33:39.255Z,31.40
2023-04-15T22:36:06.302Z,31.10
2023-04-15T22:38:33.208Z,31.70
2023-04-15T22:41:00.239Z,34.10
2023-04-15T22:43:27.462Z,33.20
2023-04-15T22:45:54.919Z,34.23
2023-04-15T22:48:22.252Z,34.63
2023-04-15T22:50:49.474Z,32.33
2023-04-15T22:53:20.154Z,32.93
2023-04-15T22:55:47.732Z,33.27
2023-04-15T22:58:15.829Z,35.93
2023-04-15T23:00:42.772Z,34.43
2023-04-15T23:03:10.027Z,36.13
2023-04-15T23:05:37.230Z,34.10
2023-04-15T23:08:04.218Z,35.10
2023-04-15T23:10:31.076Z,34.40
2023-04-15T23:12:57.926Z,34.57
2023-04-15T23:15:25.294Z,34.27
2023-04-15T23:17:52.133Z,33.87
2023-04-15T23:20:18.952Z,33.77
2023-04-15T23:22:45.773Z,33.73
2023-04-15T23:25:12.549Z,33.13
2023-04-15T23:27:39.300Z,32.33
2023-04-15T23:30:07.030Z,34.20
2023-04-15T23:32:33.913Z,33.60
2023-04-15T23:35:01.025Z,33.60
2023-04-15T23:37:29.716Z,33.47
2023-04-15T23:39:56.533Z,35.40
2023-04-15T23:42:24.177Z,32.83
2023-04-15T23:44:51.236Z,33.10
2023-04-15T23:47:18.153Z,34.27
2023-04-15T23:49:45.011Z,32.07
2023-04-15T23:52:12.103Z,33.10
2023-04-15T23:54:39.415Z,33.37
2023-04-15T23:57:06.298Z,33.00
2023-04-15T23:59:33.132Z,31.53
